createdAt,value
2018-12-27T00:01:27.513Z,8.38
2018-12-27T00:03:56.104Z,8.10
2018-12-27T00:06:24.661Z,7.55
2018-12-27T00:08:53.243Z,6.85
2018-12-27T00:11:21.804Z,7.85
2018-12-27T00:13:50.392Z,7.87
2018-12-27T00:16:18.944Z,7.83
2018-12-27T00:18:47.527Z,8.23
2018-12-27T00:21:16.087Z,8.25
2018-12-27T00:23:44.671Z,8.50
2018-12-27T00:26:13.232Z,7.58
2018-12-27T00:28:41.821Z,8.23
2018-12-27T00:31:10.532Z,8.15
2018-12-27T00:33:39.273Z,8.30
2018-12-27T00:36:07.988Z,7.85
2018-12-27T00:38:36.724Z,8.70
2018-12-27T00:41:05.436Z,8.18
2018-12-27T00:43:34.181Z,8.68
2018-12-27T00:46:02.889Z,7.37
2018-12-27T00:48:31.601Z,8.18
2018-12-27T00:51:00.336Z,7.67
2018-12-27T00:53:29.046Z,7.47
2018-12-27T00:55:57.824Z,8.23
2018-12-27T00:58:26.496Z,8.05
2018-12-27T01:00:55.245Z,8.03
2018-12-27T01:03:23.954Z,8.40
2018-12-27T01:05:52.700Z,8.25
2018-12-27T01:08:21.412Z,8.33
2018-12-27T01:10:50.157Z,8.60
2018-12-27T01:13:18.861Z,8.73
2018-12-27T01:15:47.604Z,8.53
2018-12-27T01:18:16.312Z,7.75
2018-12-27T01:20:45.052Z,8.15
2018-12-27T01:23:13.763Z,7.67
2018-12-27T01:25:42.508Z,7.87
2018-12-27T01:28:11.220Z,7.95
2018-12-27T01:30:39.960Z,7.62
2018-12-27T01:33:08.677Z,8.65
2018-12-27T01:35:37.417Z,8.20
2018-12-27T01:38:06.129Z,8.43
2018-12-27T01:40:34.867Z,6.92
2018-12-27T01:43:03.592Z,8.30
2018-12-27T01:45:32.315Z,7.65
2018-12-27T01:48:01.033Z,7.85
2018-12-27T01:50:29.774Z,7.95
2018-12-27T01:52:58.485Z,7.92
2018-12-27T01:55:27.240Z,7.85
2018-12-27T01:57:55.957Z,7.65
2018-12-27T02:00:24.669Z,7.42
2018-12-27T02:02:53.404Z,7.90
2018-12-27T02:05:22.121Z,8.08
2018-12-27T02:07:50.859Z,7.85
2018-12-27T02:10:19.564Z,7.62
2018-12-27T02:12:48.304Z,6.83
2018-12-27T02:15:17.021Z,6.62
2018-12-27T02:17:45.761Z,8.70
2018-12-27T02:20:14.481Z,8.70
2018-12-27T02:22:43.218Z,7.17
2018-12-27T02:25:11.929Z,7.33
2018-12-27T02:27:40.666Z,6.42
2018-12-27T02:30:09.376Z,7.15
2018-12-27T02:32:38.128Z,7.40
2018-12-27T02:35:06.836Z,7.78
2018-12-27T02:37:35.577Z,7.12
2018-12-27T02:40:04.289Z,7.22
2018-12-27T02:42:33.029Z,7.58
2018-12-27T02:45:01.743Z,7.75
2018-12-27T02:47:30.490Z,7.87
2018-12-27T02:49:59.206Z,7.83
2018-12-27T02:52:27.949Z,8.18
2018-12-27T02:54:56.663Z,8.20
2018-12-27T02:57:25.401Z,8.03
2018-12-27T02:59:54.111Z,8.00
2018-12-27T03:02:22.860Z,7.83
2018-12-27T03:04:51.576Z,7.42
2018-12-27T03:07:20.288Z,8.15
2018-12-27T03:09:49.045Z,8.90
2018-12-27T03:12:17.753Z,8.98
2018-12-27T03:14:46.488Z,8.50
2018-12-27T03:17:15.207Z,8.13
2018-12-27T03:19:43.945Z,9.10
2018-12-27T03:22:12.663Z,7.70
2018-12-27T03:24:41.399Z,7.83
2018-12-27T03:27:10.179Z,8.45
2018-12-27T03:29:38.924Z,8.88
2018-12-27T03:32:07.648Z,8.28
2018-12-27T03:34:36.377Z,8.08
2018-12-27T03:37:05.096Z,8.68
2018-12-27T03:39:33.945Z,8.63
2018-12-27T03:42:02.655Z,7.42
2018-12-27T03:44:31.389Z,8.20
2018-12-27T03:47:00.109Z,7.75
2018-12-27T03:49:28.852Z,7.90
2018-12-27T03:51:57.564Z,8.10
2018-12-27T03:54:26.299Z,10.40
2018-12-27T03:56:55.016Z,7.90
2018-12-27T03:59:23.772Z,7.55
2018-12-27T04:01:52.477Z,8.20
2018-12-27T04:04:21.215Z,7.53
2018-12-27T04:06:49.928Z,9.10
2018-12-27T04:09:18.670Z,8.55
2018-12-27T04:11:47.380Z,8.68
2018-12-27T04:14:16.092Z,8.80
2018-12-27T04:16:44.691Z,8.88
2018-12-27T04:19:13.240Z,8.93
2018-12-27T04:21:41.833Z,8.60
2018-12-27T04:24:10.726Z,8.90
2018-12-27T04:26:39.326Z,8.88
2018-12-27T04:29:07.881Z,9.03
2018-12-27T04:31:36.905Z,8.65
2018-12-27T04:34:09.430Z,8.53
2018-12-27T04:36:36.172Z,8.18
2018-12-27T04:39:06.564Z,9.03
2018-12-27T04:41:35.699Z,8.83
2018-12-27T04:44:04.585Z,8.20
2018-12-27T04:46:33.176Z,7.65
2018-12-27T04:49:01.753Z,8.35
2018-12-27T04:51:30.413Z,8.68
2018-12-27T04:53:58.980Z,8.35
2018-12-27T04:56:27.572Z,8.28
2018-12-27T04:58:56.196Z,8.10
2018-12-27T05:01:24.720Z,7.80
2018-12-27T05:03:53.279Z,8.15
2018-12-27T05:06:21.864Z,8.38
2018-12-27T05:08:50.424Z,8.48
2018-12-27T05:11:19.026Z,8.85
2018-12-27T05:13:47.565Z,8.03
2018-12-27T05:16:16.157Z,8.65
2018-12-27T05:18:44.724Z,9.43
2018-12-27T05:21:13.311Z,8.30
2018-12-27T05:23:41.871Z,8.18
2018-12-27T05:26:10.464Z,8.05
2018-12-27T05:28:39.029Z,7.95
2018-12-27T05:31:07.606Z,8.75
2018-12-27T05:33:36.164Z,9.28
2018-12-27T05:36:04.797Z,8.70
2018-12-27T05:38:33.383Z,8.70
2018-12-27T05:41:01.944Z,8.45
2018-12-27T05:43:30.536Z,8.73
2018-12-27T05:45:59.096Z,7.25
2018-12-27T05:48:27.680Z,7.28
2018-12-27T05:50:56.244Z,7.12
2018-12-27T05:53:24.897Z,7.42
2018-12-27T05:55:53.454Z,7.62
2018-12-27T05:58:22.045Z,8.68
2018-12-27T06:00:50.605Z,10.72
2018-12-27T06:03:19.197Z,11.18
2018-12-27T06:05:47.756Z,10.18
2018-12-27T06:08:16.343Z,8.38
2018-12-27T06:10:44.900Z,8.25
2018-12-27T06:13:13.488Z,7.80
2018-12-27T06:15:42.040Z,7.60
2018-12-27T06:18:10.630Z,7.37
2018-12-27T06:20:39.258Z,7.78
2018-12-27T06:23:07.845Z,7.58
2018-12-27T06:25:36.454Z,7.78
2018-12-27T06:28:04.992Z,7.45
2018-12-27T06:30:33.557Z,8.68
2018-12-27T06:33:02.144Z,9.38
2018-12-27T06:35:30.700Z,9.63
2018-12-27T06:37:59.287Z,10.05
2018-12-27T06:40:27.857Z,12.03
2018-12-27T06:42:56.429Z,11.65
2018-12-27T06:45:25.021Z,11.22
2018-12-27T06:47:53.584Z,10.78
2018-12-27T06:50:22.181Z,12.13
2018-12-27T06:52:50.742Z,11.43
2018-12-27T06:55:19.340Z,11.83
2018-12-27T06:57:47.904Z,11.83
2018-12-27T07:00:16.496Z,10.68
2018-12-27T07:02:45.056Z,9.70
2018-12-27T07:05:13.651Z,10.98
2018-12-27T07:07:42.204Z,11.05
2018-12-27T07:10:10.800Z,11.50
2018-12-27T07:12:39.378Z,10.25
2018-12-27T07:15:08.028Z,11.38
2018-12-27T07:17:36.588Z,11.30
2018-12-27T07:20:05.453Z,14.13
2018-12-27T07:22:34.021Z,12.63
2018-12-27T07:25:02.618Z,12.13
2018-12-27T07:27:31.180Z,11.95
2018-12-27T07:29:59.764Z,11.85
2018-12-27T07:32:28.336Z,12.45
2018-12-27T07:34:56.923Z,11.57
2018-12-27T07:37:25.485Z,11.48
2018-12-27T07:39:54.089Z,11.68
2018-12-27T07:42:22.656Z,11.30
2018-12-27T07:44:51.245Z,12.35
2018-12-27T07:47:19.922Z,12.35
2018-12-27T07:49:48.473Z,12.43
2018-12-27T07:52:17.039Z,12.73
2018-12-27T07:54:45.624Z,13.53
2018-12-27T07:57:14.302Z,12.78
2018-12-27T07:59:42.884Z,12.75
2018-12-27T08:02:11.481Z,12.53
2018-12-27T08:04:40.041Z,12.95
2018-12-27T08:07:08.639Z,13.80
2018-12-27T08:09:37.193Z,13.62
2018-12-27T08:12:05.789Z,13.93
2018-12-27T08:14:34.354Z,13.90
2018-12-27T08:17:02.941Z,14.03
2018-12-27T08:19:31.500Z,15.28
2018-12-27T08:22:00.096Z,14.28
2018-12-27T08:24:28.661Z,13.48
2018-12-27T08:26:57.249Z,14.65
2018-12-27T08:29:25.816Z,14.33
2018-12-27T08:31:54.405Z,14.87
2018-12-27T08:34:22.968Z,14.75
2018-12-27T08:36:51.552Z,13.30
2018-12-27T08:39:20.113Z,13.85
2018-12-27T08:41:48.715Z,13.32
2018-12-27T08:44:17.264Z,12.53
2018-12-27T08:46:45.860Z,12.28
2018-12-27T08:49:14.424Z,11.73
2018-12-27T08:51:43.013Z,13.62
2018-12-27T08:54:11.577Z,13.30
2018-12-27T08:56:40.239Z,14.15
2018-12-27T08:59:08.792Z,13.45
2018-12-27T09:01:37.391Z,14.63
2018-12-27T09:04:05.949Z,13.50
2018-12-27T09:06:34.539Z,15.93
2018-12-27T09:09:04.565Z,17.60
2018-12-27T09:11:33.152Z,19.90
2018-12-27T09:14:01.879Z,19.27
2018-12-27T09:16:30.478Z,18.23
2018-12-27T09:18:59.032Z,17.42
2018-12-27T09:21:27.638Z,18.35
2018-12-27T09:23:56.196Z,18.05
2018-12-27T09:26:24.765Z,16.48
2018-12-27T09:28:53.348Z,15.72
2018-12-27T09:31:21.917Z,17.80
2018-12-27T09:33:50.511Z,18.15
2018-12-27T09:36:19.068Z,17.70
2018-12-27T09:38:47.654Z,17.73
2018-12-27T09:41:16.207Z,15.30
2018-12-27T09:43:44.820Z,17.82
2018-12-27T09:46:13.373Z,16.35
2018-12-27T09:48:41.961Z,17.57
2018-12-27T09:51:10.525Z,17.90
2018-12-27T09:53:39.120Z,17.70
2018-12-27T09:56:07.689Z,20.02
2018-12-27T09:58:36.300Z,19.73
2018-12-27T10:01:04.866Z,19.35
2018-12-27T10:03:33.458Z,18.92
2018-12-27T10:06:02.088Z,19.42
2018-12-27T10:08:30.685Z,18.00
2018-12-27T10:10:59.311Z,20.02
2018-12-27T10:13:27.900Z,20.10
2018-12-27T10:15:56.464Z,20.08
2018-12-27T10:18:25.056Z,19.98
2018-12-27T10:20:53.614Z,19.90
2018-12-27T10:23:22.199Z,20.75
2018-12-27T10:25:50.765Z,22.87
2018-12-27T10:28:19.360Z,20.85
2018-12-27T10:30:47.924Z,20.85
2018-12-27T10:33:16.546Z,20.50
2018-12-27T10:35:45.114Z,21.50
2018-12-27T10:38:13.671Z,20.80
2018-12-27T10:40:42.265Z,18.42
2018-12-27T10:43:10.828Z,19.90
2018-12-27T10:45:39.425Z,21.57
2018-12-27T10:48:07.993Z,20.05
2018-12-27T10:50:36.588Z,23.77
2018-12-27T10:53:05.148Z,18.93
2018-12-27T10:55:33.745Z,19.85
2018-12-27T10:58:02.312Z,18.12
2018-12-27T11:00:30.913Z,19.00
2018-12-27T11:02:59.480Z,18.12
2018-12-27T11:05:28.086Z,17.82
2018-12-27T11:07:56.648Z,17.82
2018-12-27T11:10:25.245Z,19.02
2018-12-27T11:12:53.811Z,18.77
2018-12-27T11:15:22.405Z,20.97
2018-12-27T11:17:50.972Z,18.32
2018-12-27T11:20:19.586Z,19.25
2018-12-27T11:22:48.157Z,19.48
2018-12-27T11:25:17.629Z,18.55
2018-12-27T11:27:46.184Z,20.15
2018-12-27T11:30:14.779Z,19.42
2018-12-27T11:32:43.333Z,18.25
2018-12-27T11:35:11.933Z,18.57
2018-12-27T11:37:40.500Z,22.80
2018-12-27T11:40:09.165Z,19.10
2018-12-27T11:42:37.725Z,18.53
2018-12-27T11:45:07.252Z,19.23
2018-12-27T11:47:35.892Z,19.40
2018-12-27T11:50:05.119Z,17.47
2018-12-27T11:52:33.681Z,18.93
2018-12-27T11:55:02.269Z,19.43
2018-12-27T11:57:30.834Z,19.10
2018-12-27T11:59:59.401Z,20.97
2018-12-27T12:02:31.315Z,18.83
2018-12-27T12:04:58.192Z,20.60
2018-12-27T12:07:26.849Z,19.83
2018-12-27T12:09:55.414Z,19.27
2018-12-27T12:12:24.005Z,19.20
2018-12-27T12:14:52.572Z,19.92
2018-12-27T12:17:21.162Z,20.30
2018-12-27T12:19:49.719Z,20.90
2018-12-27T12:22:18.319Z,19.80
2018-12-27T12:24:46.963Z,20.35
2018-12-27T12:27:15.554Z,18.47
2018-12-27T12:29:44.177Z,20.73
2018-12-27T12:32:12.769Z,19.90
2018-12-27T12:34:41.473Z,20.07
2018-12-27T12:37:13.899Z,20.03
2018-12-27T12:39:40.404Z,20.77
2018-12-27T12:42:09.001Z,18.77
2018-12-27T12:44:37.561Z,19.57
2018-12-27T12:47:06.156Z,20.40
2018-12-27T12:49:34.720Z,19.50
2018-12-27T12:52:03.304Z,20.73
2018-12-27T12:54:31.864Z,20.07
2018-12-27T12:57:00.452Z,21.27
2018-12-27T12:59:29.021Z,19.75
2018-12-27T13:01:57.614Z,19.73
2018-12-27T13:04:26.173Z,20.03
2018-12-27T13:06:54.736Z,19.67
2018-12-27T13:09:23.335Z,20.43
2018-12-27T13:11:51.895Z,19.57
2018-12-27T13:14:20.492Z,19.13
2018-12-27T13:16:49.049Z,19.23
2018-12-27T13:19:17.633Z,18.43
2018-12-27T13:21:46.197Z,17.80
2018-12-27T13:24:14.793Z,19.67
2018-12-27T13:26:43.352Z,19.27
2018-12-27T13:29:11.945Z,19.27
2018-12-27T13:31:40.513Z,19.97
2018-12-27T13:34:09.100Z,19.87
2018-12-27T13:36:37.661Z,19.47
2018-12-27T13:39:06.893Z,19.30
2018-12-27T13:41:35.521Z,18.37
2018-12-27T13:44:04.180Z,18.60
2018-12-27T13:46:32.739Z,18.90
2018-12-27T13:49:01.333Z,18.13
2018-12-27T13:51:29.900Z,18.93
2018-12-27T13:53:58.498Z,18.13
2018-12-27T13:56:27.060Z,18.73
2018-12-27T13:58:55.656Z,19.47
2018-12-27T14:01:24.216Z,19.63
2018-12-27T14:03:52.812Z,17.67
2018-12-27T14:06:21.377Z,17.80
2018-12-27T14:08:49.968Z,18.87
2018-12-27T14:11:18.545Z,17.77
2018-12-27T14:13:47.132Z,17.47
2018-12-27T14:16:15.764Z,17.93
2018-12-27T14:18:44.340Z,17.50
2018-12-27T14:21:12.911Z,18.83
2018-12-27T14:23:41.473Z,18.37
2018-12-27T14:26:10.059Z,17.17
2018-12-27T14:28:38.619Z,16.83
2018-12-27T14:31:07.380Z,18.03
2018-12-27T14:33:35.942Z,18.17
2018-12-27T14:36:04.606Z,16.57
2018-12-27T14:38:33.162Z,17.20
2018-12-27T14:41:01.750Z,19.03
2018-12-27T14:43:30.312Z,18.43
2018-12-27T14:45:58.901Z,19.87
2018-12-27T14:48:27.461Z,20.33
2018-12-27T14:50:56.052Z,18.50
2018-12-27T14:53:24.621Z,18.53
2018-12-27T14:55:53.208Z,17.40
2018-12-27T14:58:21.769Z,17.33
2018-12-27T15:00:50.364Z,17.30
2018-12-27T15:03:18.919Z,16.87
2018-12-27T15:05:47.508Z,18.27
2018-12-27T15:08:16.063Z,19.90
2018-12-27T15:10:44.653Z,18.17
2018-12-27T15:13:13.289Z,17.65
2018-12-27T15:15:41.880Z,17.83
2018-12-27T15:18:10.444Z,17.50
2018-12-27T15:20:39.036Z,16.90
2018-12-27T15:23:07.595Z,16.37
2018-12-27T15:25:36.249Z,16.93
2018-12-27T15:28:04.895Z,17.80
2018-12-27T15:30:56.301Z,17.07
2018-12-27T15:33:20.409Z,18.33
2018-12-27T15:35:49.000Z,18.30
2018-12-27T15:38:17.560Z,18.80
2018-12-27T15:40:46.136Z,18.65
2018-12-27T15:43:14.731Z,17.73
2018-12-27T15:45:43.302Z,18.65
2018-12-27T15:48:11.917Z,18.55
2018-12-27T15:50:40.624Z,19.35
2018-12-27T15:53:09.234Z,19.48
2018-12-27T15:55:37.791Z,17.17
2018-12-27T15:58:06.384Z,18.32
2018-12-27T16:00:34.953Z,18.00
2018-12-27T16:03:03.612Z,19.03
2018-12-27T16:05:32.173Z,17.97
2018-12-27T16:08:00.772Z,16.82
2018-12-27T16:10:29.332Z,16.02
2018-12-27T16:12:57.932Z,16.23
2018-12-27T16:15:26.496Z,17.60
2018-12-27T16:17:55.083Z,17.90
2018-12-27T16:20:23.658Z,16.95
2018-12-27T16:22:52.248Z,18.75
2018-12-27T16:25:20.819Z,17.70
2018-12-27T16:27:49.413Z,17.30
2018-12-27T16:30:17.977Z,16.55
2018-12-27T16:32:46.544Z,17.10
2018-12-27T16:35:15.136Z,16.42
2018-12-27T16:37:43.699Z,16.10
2018-12-27T16:40:12.288Z,16.62
2018-12-27T16:42:41.088Z,17.52
2018-12-27T16:45:09.752Z,17.82
2018-12-27T16:47:38.322Z,19.57
2018-12-27T16:50:08.752Z,22.50
2018-12-27T16:52:37.319Z,19.75
2018-12-27T16:55:05.989Z,18.50
2018-12-27T16:57:34.601Z,18.12
2018-12-27T17:00:03.621Z,17.35
2018-12-27T17:02:32.257Z,19.42
2018-12-27T17:05:00.856Z,18.60
2018-12-27T17:07:29.420Z,18.73
2018-12-27T17:09:58.020Z,18.37
2018-12-27T17:12:26.579Z,17.60
2018-12-27T17:14:55.171Z,19.35
2018-12-27T17:17:23.744Z,18.52
2018-12-27T17:19:52.345Z,19.32
2018-12-27T17:22:20.916Z,19.57
2018-12-27T17:24:49.483Z,17.30
2018-12-27T17:27:18.082Z,18.75
2018-12-27T17:29:46.637Z,17.57
2018-12-27T17:32:15.234Z,17.20
2018-12-27T17:34:43.801Z,16.93
2018-12-27T17:37:12.399Z,15.98
2018-12-27T17:39:40.967Z,16.27
2018-12-27T17:42:09.562Z,16.73
2018-12-27T17:44:38.125Z,17.82
2018-12-27T17:47:06.794Z,18.10
2018-12-27T17:49:35.352Z,18.52
2018-12-27T17:52:04.028Z,18.15
2018-12-27T17:54:32.592Z,17.87
2018-12-27T17:57:01.189Z,16.48
2018-12-27T17:59:29.759Z,16.70
2018-12-27T18:01:58.411Z,16.80
2018-12-27T18:04:26.985Z,16.55
2018-12-27T18:06:55.580Z,17.00
2018-12-27T18:09:24.144Z,17.10
2018-12-27T18:11:52.741Z,18.73
2018-12-27T18:14:21.308Z,19.42
2018-12-27T18:16:49.900Z,17.92
2018-12-27T18:19:18.513Z,20.23
2018-12-27T18:21:47.104Z,20.43
2018-12-27T18:24:15.751Z,20.80
2018-12-27T18:26:44.336Z,22.45
2018-12-27T18:29:12.899Z,21.10
2018-12-27T18:31:41.464Z,20.10
2018-12-27T18:34:10.064Z,20.82
2018-12-27T18:36:38.626Z,20.72
2018-12-27T18:39:07.220Z,21.85
2018-12-27T18:41:35.795Z,21.85
2018-12-27T18:44:04.464Z,22.10
2018-12-27T18:46:33.035Z,22.32
2018-12-27T18:49:01.632Z,22.52
2018-12-27T18:51:30.229Z,22.10
2018-12-27T18:53:58.784Z,22.15
2018-12-27T18:56:27.353Z,19.77
2018-12-27T18:58:55.951Z,19.55
2018-12-27T19:01:24.510Z,19.98
2018-12-27T19:03:53.114Z,19.70
2018-12-27T19:06:21.672Z,20.43
2018-12-27T19:08:50.346Z,20.37
2018-12-27T19:11:54.887Z,21.30
2018-12-27T19:14:23.471Z,19.57
2018-12-27T19:16:52.033Z,19.37
2018-12-27T19:19:20.626Z,19.35
2018-12-27T19:21:49.184Z,20.37
2018-12-27T19:24:17.773Z,20.00
2018-12-27T19:26:46.343Z,18.67
2018-12-27T19:29:14.937Z,20.32
2018-12-27T19:31:43.590Z,19.15
2018-12-27T19:34:12.193Z,19.12
2018-12-27T19:36:40.825Z,19.98
2018-12-27T19:39:09.425Z,20.27
2018-12-27T19:41:37.989Z,19.80
2018-12-27T19:44:06.582Z,20.72
2018-12-27T19:46:35.150Z,20.50
2018-12-27T19:49:03.746Z,21.52
2018-12-27T19:51:32.373Z,21.48
2018-12-27T19:54:00.970Z,22.98
2018-12-27T19:56:29.592Z,23.05
2018-12-27T19:58:58.193Z,20.50
2018-12-27T20:01:26.745Z,19.98
2018-12-27T20:03:55.338Z,20.80
2018-12-27T20:06:23.901Z,20.48
2018-12-27T20:08:52.493Z,20.17
2018-12-27T20:11:21.128Z,23.65
2018-12-27T20:13:49.720Z,22.73
2018-12-27T20:16:18.288Z,22.50
2018-12-27T20:18:46.853Z,22.60
2018-12-27T20:21:15.449Z,21.87
2018-12-27T20:23:44.012Z,21.60
2018-12-27T20:26:12.706Z,22.65
2018-12-27T20:28:41.344Z,23.87
2018-12-27T20:31:10.101Z,23.18
2018-12-27T20:33:38.653Z,23.32
2018-12-27T20:36:07.246Z,24.57
2018-12-27T20:38:35.804Z,22.50
2018-12-27T20:41:04.399Z,22.02
2018-12-27T20:43:32.960Z,22.85
2018-12-27T20:46:01.556Z,23.83
2018-12-27T20:48:30.120Z,23.30
2018-12-27T20:50:58.708Z,23.07
2018-12-27T20:53:27.273Z,23.32
2018-12-27T20:55:55.899Z,24.82
2018-12-27T20:58:24.543Z,25.80
2018-12-27T21:00:53.148Z,24.47
2018-12-27T21:03:21.707Z,24.57
2018-12-27T21:05:50.309Z,24.35
2018-12-27T21:08:18.880Z,23.40
2018-12-27T21:10:47.478Z,25.02
2018-12-27T21:13:16.039Z,25.17
2018-12-27T21:15:44.699Z,24.90
2018-12-27T21:18:13.275Z,24.75
2018-12-27T21:20:41.903Z,24.57
2018-12-27T21:23:10.480Z,21.65
2018-12-27T21:25:39.066Z,23.20
2018-12-27T21:28:07.652Z,24.60
2018-12-27T21:30:36.233Z,24.47
2018-12-27T21:33:04.832Z,24.00
2018-12-27T21:35:33.387Z,23.73
2018-12-27T21:38:01.993Z,24.98
2018-12-27T21:40:30.601Z,24.98
2018-12-27T21:42:59.187Z,26.00
2018-12-27T21:45:27.756Z,26.70
2018-12-27T21:47:56.348Z,25.97
2018-12-27T21:50:24.912Z,38.08
2018-12-27T21:52:53.503Z,49.27
2018-12-27T21:55:22.135Z,30.23
2018-12-27T21:57:50.723Z,27.13
2018-12-27T22:00:19.447Z,25.57
2018-12-27T22:02:48.041Z,26.27
2018-12-27T22:05:16.604Z,24.95
2018-12-27T22:07:45.207Z,25.25
2018-12-27T22:10:13.841Z,25.02
2018-12-27T22:12:42.371Z,27.22
2018-12-27T22:15:10.927Z,26.02
2018-12-27T22:17:39.588Z,24.57
2018-12-27T22:20:08.153Z,27.75
2018-12-27T22:22:36.740Z,25.70
2018-12-27T22:25:05.741Z,24.75
2018-12-27T22:27:34.308Z,24.35
2018-12-27T22:30:02.904Z,23.73
2018-12-27T22:32:31.469Z,24.60
2018-12-27T22:35:00.097Z,23.35
2018-12-27T22:37:28.630Z,23.25
2018-12-27T22:39:57.216Z,24.75
2018-12-27T22:42:25.779Z,24.80
2018-12-27T22:44:54.368Z,28.05
2018-12-27T22:47:22.937Z,25.57
2018-12-27T22:49:51.524Z,26.35
2018-12-27T22:52:20.088Z,26.70
2018-12-27T22:54:48.680Z,25.85
2018-12-27T22:57:17.245Z,25.68
2018-12-27T22:59:45.851Z,24.18
2018-12-27T23:02:14.470Z,24.65
2018-12-27T23:04:43.127Z,25.57
2018-12-27T23:07:11.688Z,24.23
2018-12-27T23:09:40.279Z,22.90
2018-12-27T23:12:08.843Z,23.38
2018-12-27T23:14:37.432Z,24.43
2018-12-27T23:17:05.997Z,24.57
2018-12-27T23:19:34.600Z,24.00
2018-12-27T23:22:03.160Z,23.30
2018-12-27T23:24:31.720Z,23.18
2018-12-27T23:27:00.308Z,22.67
2018-12-27T23:29:28.877Z,23.75
2018-12-27T23:31:57.456Z,22.95
2018-12-27T23:34:26.020Z,23.77
2018-12-27T23:36:54.607Z,24.52
2018-12-27T23:39:23.177Z,23.77
2018-12-27T23:41:51.769Z,24.52
2018-12-27T23:44:20.341Z,22.95
2018-12-27T23:46:48.929Z,23.67
2018-12-27T23:49:17.494Z,25.43
2018-12-27T23:51:46.087Z,24.52
2018-12-27T23:54:14.648Z,26.25
2018-12-27T23:56:43.238Z,25.35
2018-12-27T23:59:11.798Z,23.75
